Time;durP1;ratioP1;P1;durP2;ratioP2;P2;SDS_P1;SDS_P2;PMS_P1;PMS_P2;Temp;Humidity;BMP_temperature;BMP_pressure;BME280_temperature;BME280_humidity;BME280_pressure;Samples;Min_cycle;Max_cycle;Signal;HPM_P1;HPM_P2
2022/05/26 00:01:47;;;;;;;22.65;10.07;;;;;;;;;;5027283;28;92427;-72
2022/05/26 00:04:13;;;;;;;23.45;10.63;;;;;;;;;;5034301;27;92718;-72
2022/05/26 00:06:40;;;;;;;24.45;9.82;;;;;;;;;;5032823;27;93842;-72
2022/05/26 00:09:06;;;;;;;29.90;11.02;;;;;;;;;;5015358;28;93077;-72
2022/05/26 00:11:33;;;;;;;22.58;11.20;;;;;;;;;;5012799;28;93029;-72
2022/05/26 00:14:07;;;;;;;24.42;10.38;;;;;;;;;;5012910;28;95587;-72
2022/05/26 00:16:34;;;;;;;33.20;11.80;;;;;;;;;;5017213;28;93557;-72
2022/05/26 00:19:02;;;;;;;23.75;11.50;;;;;;;;;;5014272;28;93856;-72
2022/05/26 00:21:29;;;;;;;26.20;11.70;;;;;;;;;;5014166;28;94109;-73
2022/05/26 00:23:56;;;;;;;27.10;10.68;;;;;;;;;;5013480;28;92395;-72
2022/05/26 00:26:23;;;;;;;37.10;11.32;;;;;;;;;;5013461;28;93229;-72
2022/05/26 00:28:49;;;;;;;29.10;10.73;;;;;;;;;;5013303;28;93287;-72
2022/05/26 00:31:16;;;;;;;25.42;12.05;;;;;;;;;;5002062;28;91755;-72
2022/05/26 00:33:43;;;;;;;29.63;11.48;;;;;;;;;;4993338;28;93883;-72
2022/05/26 00:36:11;;;;;;;24.63;11.40;;;;;;;;;;5011745;28;93349;-72
2022/05/26 00:38:38;;;;;;;26.17;11.32;;;;;;;;;;5014641;28;95296;-72
2022/05/26 00:41:09;;;;;;;30.17;11.38;;;;;;;;;;5014229;28;94145;-72
2022/05/26 00:43:40;;;;;;;24.20;11.68;;;;;;;;;;5013754;28;93142;-72
2022/05/26 00:46:12;;;;;;;23.60;11.13;;;;;;;;;;5013348;28;94151;-72
2022/05/26 00:48:43;;;;;;;23.55;10.75;;;;;;;;;;5013530;28;94166;-72
2022/05/26 00:51:10;;;;;;;29.83;12.35;;;;;;;;;;5014234;28;92580;-72
2022/05/26 00:53:38;;;;;;;29.05;11.25;;;;;;;;;;5013598;28;94019;-72
2022/05/26 00:56:08;;;;;;;28.23;12.00;;;;;;;;;;5014419;28;93457;-72
2022/05/26 00:58:37;;;;;;;36.58;12.57;;;;;;;;;;5016473;28;92562;-72
2022/05/26 01:01:09;;;;;;;25.13;11.30;;;;;;;;;;5012623;28;94369;-72
2022/05/26 01:03:41;;;;;;;33.25;11.88;;;;;;;;;;5011492;28;94920;-72
2022/05/26 01:06:11;;;;;;;34.03;11.20;;;;;;;;;;5013039;28;96431;-72
2022/05/26 01:08:40;;;;;;;26.58;11.88;;;;;;;;;;5013690;28;94929;-72
2022/05/26 01:11:07;;;;;;;29.15;11.80;;;;;;;;;;5013539;28;92671;-72
2022/05/26 01:13:35;;;;;;;33.65;13.43;;;;;;;;;;5011747;28;92849;-73
2022/05/26 01:16:08;;;;;;;31.65;11.80;;;;;;;;;;5013604;28;93093;-72
2022/05/26 01:18:48;;;;;;;24.90;11.07;;;;;;;;;;5013519;28;92874;-72
2022/05/26 01:21:18;;;;;;;35.22;12.07;;;;;;;;;;5016218;28;94109;-72
2022/05/26 01:24:00;;;;;;;54.20;13.02;;;;;;;;;;5013043;28;93158;-72
2022/05/26 01:26:50;;;;;;;36.47;11.38;;;;;;;;;;5013859;28;94020;-72
2022/05/26 01:29:35;;;;;;;33.65;11.77;;;;;;;;;;5010808;28;96965;-72
2022/05/26 01:32:09;;;;;;;25.38;10.73;;;;;;;;;;5013640;28;92507;-72
2022/05/26 01:34:42;;;;;;;35.67;11.55;;;;;;;;;;5012004;28;93354;-72
2022/05/26 01:37:08;;;;;;;37.25;12.40;;;;;;;;;;5012931;28;93998;-72
2022/05/26 01:39:56;;;;;;;33.30;11.70;;;;;;;;;;5012825;28;92633;-72
2022/05/26 01:42:22;;;;;;;30.02;10.90;;;;;;;;;;5012835;28;92713;-72
2022/05/26 01:44:51;;;;;;;38.92;11.93;;;;;;;;;;5015603;28;93955;-72
2022/05/26 01:47:30;;;;;;;31.27;11.07;;;;;;;;;;5013807;28;93833;-72
2022/05/26 01:50:01;;;;;;;29.55;10.90;;;;;;;;;;5012070;28;95150;-72
2022/05/26 01:52:31;;;;;;;34.42;11.02;;;;;;;;;;5012860;28;92398;-72
2022/05/26 01:55:02;;;;;;;32.53;11.30;;;;;;;;;;5011682;28;94888;-72
2022/05/26 01:57:34;;;;;;;35.35;10.63;;;;;;;;;;5012042;28;94121;-72
2022/05/26 02:00:02;;;;;;;35.97;10.68;;;;;;;;;;5013693;28;92407;-72
2022/05/26 02:02:37;;;;;;;39.25;11.57;;;;;;;;;;5010222;28;92492;-72
2022/05/26 02:05:03;;;;;;;41.72;11.55;;;;;;;;;;5013021;28;93260;-72
2022/05/26 02:07:32;;;;;;;35.45;10.82;;;;;;;;;;5015795;28;93057;-72
2022/05/26 02:10:00;;;;;;;40.20;10.00;;;;;;;;;;5011989;28;94400;-72
2022/05/26 02:12:32;;;;;;;35.58;11.00;;;;;;;;;;5012874;28;91688;-72
2022/05/26 02:15:00;;;;;;;33.47;11.30;;;;;;;;;;5012943;28;93291;-72
2022/05/26 02:17:29;;;;;;;30.23;8.27;;;;;;;;;;5011908;28;93438;-72
2022/05/26 02:19:59;;;;;;;41.30;11.10;;;;;;;;;;5011957;28;94867;-72
2022/05/26 02:22:28;;;;;;;43.13;11.65;;;;;;;;;;5011595;28;95430;-72
2022/05/26 02:25:00;;;;;;;35.17;10.63;;;;;;;;;;5011412;28;93323;-72
2022/05/26 02:27:27;;;;;;;42.28;11.07;;;;;;;;;;5012643;28;92432;-72
2022/05/26 02:29:56;;;;;;;43.88;11.40;;;;;;;;;;5015544;28;93879;-72
2022/05/26 02:32:24;;;;;;;40.35;11.57;;;;;;;;;;5011665;28;92525;-72
2022/05/26 02:34:51;;;;;;;42.20;11.40;;;;;;;;;;5018962;27;93203;-72
2022/05/26 02:37:19;;;;;;;38.92;10.35;;;;;;;;;;4996307;28;92852;-73
2022/05/26 02:39:46;;;;;;;40.33;10.25;;;;;;;;;;4995075;28;93132;-72
2022/05/26 02:42:12;;;;;;;40.53;9.95;;;;;;;;;;4996670;28;93978;-72
2022/05/26 02:44:39;;;;;;;34.05;9.50;;;;;;;;;;5013600;28;95838;-72
2022/05/26 02:47:12;;;;;;;35.92;9.50;;;;;;;;;;5016830;28;93710;-72
2022/05/26 02:49:38;;;;;;;;;;;;;;;;;;5016574;28;92439;-72
2022/05/26 02:52:11;;;;;;;32.65;8.57;;;;;;;;;;5034596;28;123597;-73
2022/05/26 02:54:53;;;;;;;50.10;9.25;;;;;;;;;;5036330;27;92440;-72
2022/05/26 02:57:33;;;;;;;28.15;7.85;;;;;;;;;;5036595;28;94439;-72
2022/05/26 03:00:00;;;;;;;33.00;8.75;;;;;;;;;;5036068;28;92418;-72
2022/05/26 03:02:35;;;;;;;32.65;7.90;;;;;;;;;;5033080;28;94248;-72
2022/05/26 03:05:04;;;;;;;40.75;9.43;;;;;;;;;;5016316;28;93295;-72
2022/05/26 03:07:33;;;;;;;34.78;8.07;;;;;;;;;;5017865;28;92487;-72
2022/05/26 03:10:03;;;;;;;42.95;8.80;;;;;;;;;;5035016;28;94849;-72
2022/05/26 03:12:32;;;;;;;38.05;8.25;;;;;;;;;;5036435;28;94275;-73
2022/05/26 03:14:59;;;;;;;30.13;8.23;;;;;;;;;;5015769;28;94106;-72
2022/05/26 03:17:26;;;;;;;29.90;7.63;;;;;;;;;;5016194;28;93436;-72
2022/05/26 03:19:52;;;;;;;36.65;8.55;;;;;;;;;;5015782;28;92722;-72
2022/05/26 03:22:20;;;;;;;40.30;7.65;;;;;;;;;;5016191;28;94154;-73
2022/05/26 03:24:46;;;;;;;33.17;6.82;;;;;;;;;;5020366;28;94442;-72
2022/05/26 03:27:13;;;;;;;37.35;8.20;;;;;;;;;;5017878;28;91775;-72
2022/05/26 03:29:39;;;;;;;26.65;6.80;;;;;;;;;;5015911;28;93292;-72
2022/05/26 03:32:06;;;;;;;36.75;7.63;;;;;;;;;;5016001;28;93298;-72
2022/05/26 03:42:48;;;;;;;32.25;7.50;;;;;;;;;;5015934;28;94093;-72
2022/05/26 03:45:16;;;;;;;33.45;7.22;;;;;;;;;;5015557;28;94122;-72
2022/05/26 03:47:42;;;;;;;40.30;7.13;;;;;;;;;;5015305;28;92430;-72
2022/05/26 03:50:09;;;;;;;29.23;6.68;;;;;;;;;;5015068;28;93921;-72
2022/05/26 03:52:35;;;;;;;37.05;7.88;;;;;;;;;;5015938;28;93726;-72
2022/05/26 03:55:02;;;;;;;29.13;7.28;;;;;;;;;;5015125;28;92815;-72
2022/05/26 03:57:29;;;;;;;33.35;7.60;;;;;;;;;;5018262;28;93846;-72
2022/05/26 03:59:55;;;;;;;28.30;6.18;;;;;;;;;;5014744;28;94892;-72
2022/05/26 04:02:22;;;;;;;23.35;5.60;;;;;;;;;;5014096;28;95663;-72
2022/05/26 04:04:48;;;;;;;26.88;6.22;;;;;;;;;;5015072;28;93146;-72
2022/05/26 04:07:14;;;;;;;30.67;5.57;;;;;;;;;;5015212;28;92455;-72
2022/05/26 04:09:41;;;;;;;32.00;6.10;;;;;;;;;;5014565;28;92465;-72
2022/05/26 04:12:08;;;;;;;21.30;5.53;;;;;;;;;;5015464;28;94172;-72
2022/05/26 04:14:35;;;;;;;31.17;7.97;;;;;;;;;;5015207;28;92744;-72
2022/05/26 04:17:01;;;;;;;26.63;5.78;;;;;;;;;;5015312;28;93096;-72
2022/05/26 04:19:28;;;;;;;27.77;6.00;;;;;;;;;;5017879;28;94365;-72
2022/05/26 04:24:39;;;;;;;25.50;5.75;;;;;;;;;;5012340;28;96498;-72
2022/05/26 04:27:06;;;;;;;23.55;5.88;;;;;;;;;;5014584;28;92478;-72
2022/05/26 04:29:33;;;;;;;19.48;4.85;;;;;;;;;;5014703;28;93988;-72
2022/05/26 04:31:59;;;;;;;28.67;5.25;;;;;;;;;;5014414;28;94215;-74
2022/05/26 04:34:28;;;;;;;21.75;5.47;;;;;;;;;;5015451;28;92481;-73
2022/05/26 04:36:55;;;;;;;18.35;4.97;;;;;;;;;;4996902;28;95532;-72
2022/05/26 04:39:21;;;;;;;27.48;4.88;;;;;;;;;;4993560;28;93446;-72
2022/05/26 04:41:47;;;;;;;20.48;4.72;;;;;;;;;;4997235;28;91727;-72
2022/05/26 04:44:16;;;;;;;12.77;3.97;;;;;;;;;;5004487;28;94342;-72
2022/05/26 04:46:42;;;;;;;17.73;4.47;;;;;;;;;;4997103;28;93037;-72
2022/05/26 04:49:09;;;;;;;17.83;4.75;;;;;;;;;;4993333;28;94879;-72
2022/05/26 04:51:36;;;;;;;20.10;4.60;;;;;;;;;;5013715;28;94044;-72
2022/05/26 04:54:03;;;;;;;22.40;4.55;;;;;;;;;;5014962;28;92454;-71
2022/05/26 04:56:30;;;;;;;18.60;4.40;;;;;;;;;;5014273;28;93963;-71
2022/05/26 04:58:57;;;;;;;16.20;4.35;;;;;;;;;;5013196;28;92474;-72
2022/05/26 05:01:24;;;;;;;13.40;3.65;;;;;;;;;;5014509;28;92518;-72
2022/05/26 05:03:50;;;;;;;19.45;4.70;;;;;;;;;;5017588;28;93758;-72
2022/05/26 05:06:17;;;;;;;12.82;3.95;;;;;;;;;;5014935;28;91763;-72
2022/05/26 05:08:43;;;;;;;10.98;2.85;;;;;;;;;;5014224;28;92755;-72
2022/05/26 05:11:11;;;;;;;12.88;3.30;;;;;;;;;;5014437;28;94201;-72
2022/05/26 05:13:38;;;;;;;15.40;3.80;;;;;;;;;;5012039;28;94982;-72
2022/05/26 05:16:06;;;;;;;15.30;3.30;;;;;;;;;;5014454;28;96406;-72
2022/05/26 05:18:32;;;;;;;15.35;3.67;;;;;;;;;;5013867;28;93771;-72
2022/05/26 05:21:04;;;;;;;10.82;3.42;;;;;;;;;;5013911;28;92520;-71
2022/05/26 05:23:31;;;;;;;12.60;3.63;;;;;;;;;;5017710;28;93990;-72
2022/05/26 05:25:59;;;;;;;18.55;3.40;;;;;;;;;;5014138;28;92526;-72
2022/05/26 05:28:33;;;;;;;12.50;3.55;;;;;;;;;;5013494;28;94012;-72
2022/05/26 05:31:06;;;;;;;8.23;2.85;;;;;;;;;;5014395;28;93497;-72
2022/05/26 05:33:40;;;;;;;14.60;3.45;;;;;;;;;;5019057;28;94048;-72
2022/05/26 05:36:08;;;;;;;12.02;3.28;;;;;;;;;;5004979;28;93414;-72
2022/05/26 05:38:36;;;;;;;16.70;3.35;;;;;;;;;;4996621;28;96614;-72
2022/05/26 05:41:02;;;;;;;12.32;2.92;;;;;;;;;;5006037;28;92532;-72
2022/05/26 05:43:29;;;;;;;12.38;3.22;;;;;;;;;;5000142;28;94195;-72
2022/05/26 05:45:55;;;;;;;16.73;4.10;;;;;;;;;;5000218;28;94120;-72
2022/05/26 05:48:22;;;;;;;7.13;2.67;;;;;;;;;;4998609;28;94647;-72
2022/05/26 05:50:48;;;;;;;11.65;2.60;;;;;;;;;;5001490;28;94240;-72
2022/05/26 05:53:18;;;;;;;8.68;2.83;;;;;;;;;;4996708;28;92995;-72
2022/05/26 05:55:44;;;;;;;8.52;2.80;;;;;;;;;;4998912;28;93892;-72
2022/05/26 05:58:11;;;;;;;10.02;2.80;;;;;;;;;;4994465;28;93622;-72
2022/05/26 06:00:39;;;;;;;9.27;2.45;;;;;;;;;;4999821;28;94098;-72
2022/05/26 06:03:05;;;;;;;11.77;2.50;;;;;;;;;;5005413;28;96276;-72
2022/05/26 06:05:32;;;;;;;8.65;2.78;;;;;;;;;;5001729;28;94207;-72
2022/05/26 06:07:58;;;;;;;6.03;2.75;;;;;;;;;;4998396;28;93837;-72
2022/05/26 06:10:25;;;;;;;8.95;2.47;;;;;;;;;;4999225;28;94316;-72
2022/05/26 06:12:51;;;;;;;15.30;3.08;;;;;;;;;;5003717;28;93540;-72
2022/05/26 06:15:18;;;;;;;9.93;2.30;;;;;;;;;;5001985;28;96118;-72
2022/05/26 06:17:44;;;;;;;10.88;3.42;;;;;;;;;;5000173;28;94584;-71
2022/05/26 06:20:11;;;;;;;9.32;2.50;;;;;;;;;;4999799;28;94009;-72
2022/05/26 06:22:45;;;;;;;15.00;3.20;;;;;;;;;;4999423;28;94430;-71
2022/05/26 06:25:12;;;;;;;11.68;2.72;;;;;;;;;;4994626;28;95785;-72
2022/05/26 06:30:26;;;;;;;8.50;2.60;;;;;;;;;;5000251;28;95689;-72
2022/05/26 06:38:25;;;;;;;9.85;2.67;;;;;;;;;;5002293;28;94164;-72
2022/05/26 06:40:51;;;;;;;5.28;2.22;;;;;;;;;;4997958;28;95191;-74
2022/05/26 06:43:18;;;;;;;11.38;2.17;;;;;;;;;;5004543;28;94131;-72
2022/05/26 06:45:45;;;;;;;11.73;2.50;;;;;;;;;;5000238;28;93350;-72
2022/05/26 06:48:12;;;;;;;6.50;2.30;;;;;;;;;;4997966;28;94435;-72
2022/05/26 06:50:39;;;;;;;7.03;2.47;;;;;;;;;;5003118;28;94550;-72
2022/05/26 06:53:06;;;;;;;8.75;2.17;;;;;;;;;;4998389;28;96037;-72
2022/05/26 06:55:32;;;;;;;5.90;2.30;;;;;;;;;;5005354;28;95756;-72
2022/05/26 06:57:58;;;;;;;6.70;2.40;;;;;;;;;;5001723;28;95645;-72
2022/05/26 07:00:25;;;;;;;10.82;2.58;;;;;;;;;;5000888;28;94425;-72
2022/05/26 07:02:52;;;;;;;7.78;2.80;;;;;;;;;;5004373;28;93274;-72
2022/05/26 07:05:18;;;;;;;7.78;2.80;;;;;;;;;;5000100;28;94336;-72
2022/05/26 07:07:45;;;;;;;8.95;2.85;;;;;;;;;;5000064;28;94132;-72
2022/05/26 07:10:13;;;;;;;6.70;1.88;;;;;;;;;;5002013;28;93862;-72
2022/05/26 07:12:40;;;;;;;7.97;2.50;;;;;;;;;;4998460;28;94525;-72
2022/05/26 07:15:08;;;;;;;7.43;2.03;;;;;;;;;;5010225;28;93119;-72
2022/05/26 07:17:36;;;;;;;7.90;1.95;;;;;;;;;;5007788;28;96607;-72
2022/05/26 07:20:03;;;;;;;8.07;2.10;;;;;;;;;;4998322;28;92526;-74
2022/05/26 07:22:31;;;;;;;6.43;2.45;;;;;;;;;;5007386;28;93211;-72
2022/05/26 07:24:58;;;;;;;7.53;1.88;;;;;;;;;;5017457;28;94035;-72
2022/05/26 07:27:24;;;;;;;6.05;2.40;;;;;;;;;;4998394;28;93001;-73
2022/05/26 07:29:52;;;;;;;12.90;2.65;;;;;;;;;;5016213;28;93097;-72
2022/05/26 07:32:19;;;;;;;4.78;1.90;;;;;;;;;;5015604;28;93261;-73
2022/05/26 07:34:45;;;;;;;4.53;1.98;;;;;;;;;;5002835;28;94442;-72
2022/05/26 07:42:41;;;;;;;6.85;2.15;;;;;;;;;;4991120;28;96603;-72
2022/05/26 07:45:09;;;;;;;7.55;2.45;;;;;;;;;;4993823;28;94234;-71
2022/05/26 07:47:36;;;;;;;7.53;2.42;;;;;;;;;;4998873;28;94373;-71
2022/05/26 07:50:05;;;;;;;6.97;2.28;;;;;;;;;;4995743;28;93957;-71
2022/05/26 07:52:31;;;;;;;6.72;2.35;;;;;;;;;;5004969;28;94039;-71
2022/05/26 07:54:57;;;;;;;5.03;1.85;;;;;;;;;;5007328;28;94702;-71
2022/05/26 07:57:25;;;;;;;11.98;3.08;;;;;;;;;;5020144;28;92576;-71
2022/05/26 07:59:52;;;;;;;4.20;1.70;;;;;;;;;;5015918;28;91708;-71
2022/05/26 08:02:20;;;;;;;6.28;2.05;;;;;;;;;;4999750;28;93265;-71
2022/05/26 08:04:47;;;;;;;7.32;2.28;;;;;;;;;;5007308;28;96049;-71
2022/05/26 08:07:14;;;;;;;6.30;1.98;;;;;;;;;;4996245;28;94866;-71
2022/05/26 08:09:40;;;;;;;6.35;2.30;;;;;;;;;;5007595;28;96166;-72
2022/05/26 08:12:08;;;;;;;5.60;2.25;;;;;;;;;;4995548;28;94065;-71
2022/05/26 08:14:34;;;;;;;5.07;1.90;;;;;;;;;;5006739;28;92466;-72
2022/05/26 08:17:01;;;;;;;6.55;2.55;;;;;;;;;;5002600;28;93985;-72
2022/05/26 08:19:27;;;;;;;9.38;2.35;;;;;;;;;;5017569;28;94290;-72
2022/05/26 08:21:54;;;;;;;8.60;2.53;;;;;;;;;;5015397;28;94043;-71
2022/05/26 08:24:20;;;;;;;8.93;2.60;;;;;;;;;;5012230;28;95214;-72
2022/05/26 08:26:47;;;;;;;4.45;2.25;;;;;;;;;;5002496;28;92513;-72
2022/05/26 08:29:13;;;;;;;7.38;2.53;;;;;;;;;;5009918;28;93855;-71
2022/05/26 08:31:40;;;;;;;6.47;2.35;;;;;;;;;;5000375;28;94870;-71
2022/05/26 08:34:06;;;;;;;10.07;2.60;;;;;;;;;;5001318;28;92506;-71
2022/05/26 08:36:33;;;;;;;9.35;2.53;;;;;;;;;;5004925;28;93891;-71
2022/05/26 08:39:00;;;;;;;10.25;3.08;;;;;;;;;;5006807;28;94252;-71
2022/05/26 08:41:33;;;;;;;5.75;2.70;;;;;;;;;;5002686;28;94281;-72
2022/05/26 08:44:29;;;;;;;7.05;2.70;;;;;;;;;;5003745;28;96215;-72
2022/05/26 08:47:01;;;;;;;6.85;2.30;;;;;;;;;;4992989;28;94256;-71
2022/05/26 08:49:35;;;;;;;8.98;2.55;;;;;;;;;;4997978;28;93807;-71
2022/05/26 08:52:10;;;;;;;7.90;2.15;;;;;;;;;;4999956;28;94260;-71
2022/05/26 08:54:39;;;;;;;9.13;2.97;;;;;;;;;;5001687;28;93882;-72
2022/05/26 08:57:08;;;;;;;8.30;2.10;;;;;;;;;;4998860;28;96664;-72
2022/05/26 08:59:38;;;;;;;2.70;1.80;;;;;;;;;;5022393;28;94225;-72
2022/05/26 09:02:05;;;;;;;4.30;1.88;;;;;;;;;;5017320;27;93392;-72
2022/05/26 09:04:31;;;;;;;6.22;1.83;;;;;;;;;;4992914;28;92569;-71
2022/05/26 09:15:19;;;;;;;6.90;2.05;;;;;;;;;;4991698;28;93232;-71
2022/05/26 09:17:45;;;;;;;6.32;2.30;;;;;;;;;;4996184;28;92597;-71
2022/05/26 09:20:30;;;;;;;5.25;2.22;;;;;;;;;;4990645;28;93481;-71
2022/05/26 09:23:07;;;;;;;5.63;2.20;;;;;;;;;;4988966;28;97530;-71
2022/05/26 09:25:44;;;;;;;7.25;1.75;;;;;;;;;;5004200;28;96319;-72
2022/05/26 09:28:10;;;;;;;4.93;2.05;;;;;;;;;;4997135;28;92647;-71
2022/05/26 09:30:37;;;;;;;3.50;1.67;;;;;;;;;;5009148;28;93169;-70
2022/05/26 09:33:17;;;;;;;5.22;2.10;;;;;;;;;;4995513;28;93711;-68
2022/05/26 09:35:43;;;;;;;6.80;1.90;;;;;;;;;;5005292;28;93102;-72
2022/05/26 09:38:14;;;;;;;6.57;2.38;;;;;;;;;;4996199;28;93465;-72
2022/05/26 09:40:41;;;;;;;6.22;2.30;;;;;;;;;;5002863;28;93408;-72
2022/05/26 09:43:16;;;;;;;5.93;2.10;;;;;;;;;;5014032;28;92593;-72
2022/05/26 09:45:44;;;;;;;4.80;2.22;;;;;;;;;;5008585;28;93123;-72
2022/05/26 09:48:17;;;;;;;5.32;2.20;;;;;;;;;;5000515;28;95806;-72
2022/05/26 09:50:52;;;;;;;8.75;2.50;;;;;;;;;;4999493;28;95431;-72
2022/05/26 09:53:30;;;;;;;4.47;1.90;;;;;;;;;;4995440;28;93288;-72
2022/05/26 09:55:57;;;;;;;8.18;2.53;;;;;;;;;;4996007;28;94359;-72
2022/05/26 09:58:31;;;;;;;5.78;2.40;;;;;;;;;;4991398;28;93939;-72
2022/05/26 10:01:01;;;;;;;8.25;2.85;;;;;;;;;;4993776;28;93161;-72
2022/05/26 10:03:47;;;;;;;7.93;2.75;;;;;;;;;;4988636;28;92763;-72
2022/05/26 10:06:15;;;;;;;8.25;2.95;;;;;;;;;;4991741;28;94063;-72
2022/05/26 10:09:00;;;;;;;4.28;2.08;;;;;;;;;;4993327;28;94142;-72
2022/05/26 10:11:35;;;;;;;10.88;2.40;;;;;;;;;;4998838;28;94347;-71
2022/05/26 10:14:08;;;;;;;4.32;1.50;;;;;;;;;;4995968;28;96641;-72
2022/05/26 10:16:41;;;;;;;3.95;1.92;;;;;;;;;;4991534;28;94324;-72
2022/05/26 10:19:07;;;;;;;4.05;1.92;;;;;;;;;;4994308;28;93387;-72
2022/05/26 10:21:46;;;;;;;8.35;1.98;;;;;;;;;;4993144;28;94676;-72
2022/05/26 10:24:12;;;;;;;5.85;2.10;;;;;;;;;;4999629;28;92571;-72
2022/05/26 10:26:43;;;;;;;6.07;2.15;;;;;;;;;;4997542;28;93068;-71
2022/05/26 10:29:28;;;;;;;7.28;2.08;;;;;;;;;;4999030;28;94112;-72
2022/05/26 10:31:55;;;;;;;6.07;1.65;;;;;;;;;;4989941;28;92674;-72
2022/05/26 10:34:28;;;;;;;4.45;1.80;;;;;;;;;;4992949;28;94349;-72
2022/05/26 10:36:57;;;;;;;4.82;2.03;;;;;;;;;;4988115;28;94627;-72
2022/05/26 10:39:26;;;;;;;6.60;2.22;;;;;;;;;;4989940;28;96058;-71
2022/05/26 10:41:58;;;;;;;2.80;1.63;;;;;;;;;;4992362;28;94762;-72
2022/05/26 10:44:27;;;;;;;4.70;1.80;;;;;;;;;;4993547;28;92998;-72
2022/05/26 10:47:02;;;;;;;6.03;2.15;;;;;;;;;;5008611;28;93892;-72
2022/05/26 10:49:34;;;;;;;3.10;1.73;;;;;;;;;;5011088;28;93213;-72
2022/05/26 10:52:06;;;;;;;2.25;1.33;;;;;;;;;;4995682;28;94772;-72
2022/05/26 10:54:51;;;;;;;4.18;1.70;;;;;;;;;;4992829;28;92926;-72
2022/05/26 10:57:20;;;;;;;6.07;1.42;;;;;;;;;;4998771;28;92709;-72
2022/05/26 11:00:10;;;;;;;4.82;2.20;;;;;;;;;;4996740;28;93036;-72
2022/05/26 11:02:36;;;;;;;9.10;1.75;;;;;;;;;;4992487;28;93627;-72
2022/05/26 11:05:08;;;;;;;4.85;1.60;;;;;;;;;;4996905;28;94935;-72
2022/05/26 11:07:35;;;;;;;;;;;;;;;;;;5005751;28;95662;-72
2022/05/26 11:10:04;;;;;;;3.42;1.55;;;;;;;;;;5003196;28;124736;-71
2022/05/26 11:12:46;;;;;;;3.95;1.52;;;;;;;;;;5005729;28;92768;-72
2022/05/26 11:18:18;;;;;;;5.78;2.10;;;;;;;;;;5002957;27;93192;-74
2022/05/26 11:20:50;;;;;;;5.97;2.20;;;;;;;;;;5001473;28;94624;-72
2022/05/26 11:23:17;;;;;;;8.70;2.47;;;;;;;;;;4997010;28;94499;-72
2022/05/26 11:25:53;;;;;;;6.70;1.63;;;;;;;;;;4993764;28;92588;-72
2022/05/26 11:28:22;;;;;;;7.85;2.17;;;;;;;;;;4992924;28;93776;-73
2022/05/26 11:36:38;;;;;;;4.28;2.00;;;;;;;;;;4991887;28;93893;-72
2022/05/26 11:39:08;;;;;;;6.05;1.88;;;;;;;;;;4995540;28;94156;-70
2022/05/26 11:41:36;;;;;;;7.32;2.25;;;;;;;;;;4998633;28;92500;-71
2022/05/26 11:44:04;;;;;;;6.30;1.85;;;;;;;;;;4991781;28;94389;-71
2022/05/26 11:46:44;;;;;;;7.30;2.42;;;;;;;;;;5004378;28;94375;-70
2022/05/26 11:49:31;;;;;;;4.55;2.20;;;;;;;;;;4996716;28;94963;-71
2022/05/26 11:51:57;;;;;;;7.72;2.25;;;;;;;;;;4997116;28;95378;-72
2022/05/26 11:54:42;;;;;;;5.28;1.98;;;;;;;;;;4991021;28;94131;-72
2022/05/26 11:57:27;;;;;;;4.70;1.65;;;;;;;;;;4991320;28;96194;-71
2022/05/26 11:59:53;;;;;;;7.95;2.33;;;;;;;;;;4995902;28;94532;-72
2022/05/26 12:02:27;;;;;;;4.35;1.95;;;;;;;;;;4998436;28;94556;-72
2022/05/26 12:04:53;;;;;;;8.27;2.50;;;;;;;;;;4999850;28;93887;-72
2022/05/26 12:07:21;;;;;;;5.93;1.80;;;;;;;;;;5003506;28;93658;-71
2022/05/26 12:09:49;;;;;;;9.48;2.83;;;;;;;;;;5008229;28;93548;-71
2022/05/26 12:12:15;;;;;;;5.45;2.00;;;;;;;;;;5009499;28;94604;-68
2022/05/26 12:14:47;;;;;;;6.72;2.40;;;;;;;;;;5005785;28;93088;-70
2022/05/26 12:17:30;;;;;;;9.50;2.20;;;;;;;;;;4997788;28;92610;-71
2022/05/26 12:20:24;;;;;;;6.67;2.17;;;;;;;;;;4994445;28;94271;-71
2022/05/26 12:22:53;;;;;;;8.77;2.67;;;;;;;;;;4998151;28;95245;-71
2022/05/26 12:25:32;;;;;;;6.53;2.20;;;;;;;;;;5014350;28;96639;-71
2022/05/26 12:28:00;;;;;;;4.40;2.00;;;;;;;;;;5017966;28;94230;-72
2022/05/26 12:30:44;;;;;;;3.95;1.73;;;;;;;;;;5012355;28;94303;-71
2022/05/26 12:33:17;;;;;;;5.45;1.98;;;;;;;;;;5014434;28;94050;-71
2022/05/26 12:36:02;;;;;;;10.15;1.63;;;;;;;;;;5005938;28;94350;-71
2022/05/26 12:38:49;;;;;;;7.32;2.10;;;;;;;;;;4993907;28;93869;-71
2022/05/26 12:41:24;;;;;;;10.70;3.25;;;;;;;;;;4994798;28;93608;-71
2022/05/26 12:43:54;;;;;;;5.90;2.17;;;;;;;;;;5012206;28;92554;-71
2022/05/26 12:46:27;;;;;;;5.78;2.33;;;;;;;;;;5014569;28;94093;-71
2022/05/26 12:49:15;;;;;;;4.90;1.95;;;;;;;;;;5012544;28;98349;-71
2022/05/26 12:51:41;;;;;;;7.80;1.42;;;;;;;;;;5016485;28;93527;-71
2022/05/26 12:54:09;;;;;;;4.93;2.05;;;;;;;;;;5001614;28;93123;-71
2022/05/26 12:56:53;;;;;;;7.90;1.90;;;;;;;;;;4995033;28;92437;-71
2022/05/26 12:59:24;;;;;;;4.85;1.60;;;;;;;;;;5018292;28;94893;-71
2022/05/26 13:01:51;;;;;;;4.97;1.58;;;;;;;;;;5014505;28;93252;-72
2022/05/26 13:04:20;;;;;;;7.57;1.95;;;;;;;;;;5013397;28;92621;-71
2022/05/26 13:06:48;;;;;;;14.40;1.90;;;;;;;;;;5014449;28;94078;-71
2022/05/26 13:09:18;;;;;;;9.57;1.85;;;;;;;;;;5019851;28;94135;-70
2022/05/26 13:12:00;;;;;;;4.33;1.43;;;;;;;;;;5008862;27;92884;-71
2022/05/26 13:14:33;;;;;;;6.13;2.10;;;;;;;;;;5001912;28;96336;-71
2022/05/26 13:17:04;;;;;;;6.45;1.73;;;;;;;;;;5013954;28;92527;-71
2022/05/26 13:19:39;;;;;;;3.65;1.50;;;;;;;;;;5011862;28;92968;-70
2022/05/26 13:22:10;;;;;;;5.82;1.42;;;;;;;;;;5013748;28;94263;-71
2022/05/26 13:24:36;;;;;;;9.57;2.08;;;;;;;;;;4998180;28;92922;-71
2022/05/26 13:27:08;;;;;;;6.10;2.05;;;;;;;;;;5009161;28;93916;-72
2022/05/26 13:29:35;;;;;;;5.47;1.77;;;;;;;;;;5005316;28;94329;-71
2022/05/26 13:34:59;;;;;;;6.15;1.50;;;;;;;;;;5000431;28;93896;-71
2022/05/26 13:37:31;;;;;;;3.08;1.30;;;;;;;;;;5015005;28;94676;-72
2022/05/26 13:40:03;;;;;;;4.43;1.52;;;;;;;;;;5002460;28;94903;-71
2022/05/26 13:42:30;;;;;;;3.23;1.30;;;;;;;;;;4993217;28;93592;-71
2022/05/26 13:44:57;;;;;;;4.35;1.40;;;;;;;;;;4993643;28;92506;-71
2022/05/26 13:47:24;;;;;;;5.13;1.17;;;;;;;;;;4993711;28;97876;-71
2022/05/26 13:50:05;;;;;;;2.63;1.40;;;;;;;;;;4993434;28;94110;-71
2022/05/26 13:52:34;;;;;;;4.05;1.30;;;;;;;;;;4993396;28;92658;-71
2022/05/26 13:55:04;;;;;;;2.83;1.30;;;;;;;;;;5006705;28;93316;-71
2022/05/26 13:57:33;;;;;;;4.22;1.50;;;;;;;;;;5016203;28;92606;-71
2022/05/26 14:00:02;;;;;;;8.52;2.13;;;;;;;;;;5012942;28;93247;-71
2022/05/26 14:02:32;;;;;;;2.38;1.25;;;;;;;;;;5007143;28;93041;-71
2022/05/26 14:05:08;;;;;;;6.63;1.90;;;;;;;;;;5011633;28;94866;-71
2022/05/26 14:07:42;;;;;;;1.50;1.15;;;;;;;;;;5002283;28;96128;-71
2022/05/26 14:10:14;;;;;;;4.88;1.23;;;;;;;;;;4995300;28;94201;-71
2022/05/26 14:12:42;;;;;;;3.53;1.10;;;;;;;;;;4992793;28;94300;-72
2022/05/26 14:15:09;;;;;;;2.45;1.38;;;;;;;;;;4992384;28;94051;-72
2022/05/26 14:17:41;;;;;;;3.25;1.13;;;;;;;;;;4992740;28;93125;-70
2022/05/26 14:20:25;;;;;;;3.80;1.55;;;;;;;;;;5000131;28;92476;-72
2022/05/26 14:22:52;;;;;;;10.55;1.92;;;;;;;;;;5003341;28;93857;-71
2022/05/26 14:25:21;;;;;;;6.57;1.40;;;;;;;;;;4992865;28;93168;-71
2022/05/26 14:27:50;;;;;;;3.38;1.50;;;;;;;;;;4992812;28;94003;-71
2022/05/26 14:30:27;;;;;;;5.22;1.40;;;;;;;;;;4991280;28;97116;-71
2022/05/26 14:32:54;;;;;;;4.93;1.48;;;;;;;;;;4996249;28;92922;-72
2022/05/26 14:35:20;;;;;;;5.50;1.70;;;;;;;;;;4996203;28;93551;-71
2022/05/26 14:37:55;;;;;;;5.18;1.60;;;;;;;;;;4994150;28;94812;-72
2022/05/26 14:40:23;;;;;;;6.60;1.30;;;;;;;;;;4999800;28;92645;-73
2022/05/26 14:42:49;;;;;;;4.75;1.65;;;;;;;;;;4999063;28;92963;-72
2022/05/26 14:45:18;;;;;;;3.45;1.42;;;;;;;;;;4996501;28;92442;-72
2022/05/26 14:47:45;;;;;;;9.52;1.73;;;;;;;;;;4996595;28;93934;-71
2022/05/26 14:50:14;;;;;;;3.42;1.40;;;;;;;;;;5006717;28;93362;-72
2022/05/26 14:52:43;;;;;;;5.20;1.27;;;;;;;;;;4996661;28;93263;-72
2022/05/26 14:55:27;;;;;;;4.43;1.67;;;;;;;;;;5009083;28;94868;-72
2022/05/26 14:57:54;;;;;;;4.95;1.70;;;;;;;;;;5015239;28;92939;-72
2022/05/26 15:00:23;;;;;;;2.33;1.20;;;;;;;;;;5008422;28;93090;-71
2022/05/26 15:02:52;;;;;;;3.23;1.33;;;;;;;;;;4996356;28;92590;-72
2022/05/26 15:05:22;;;;;;;3.50;1.20;;;;;;;;;;5009349;28;94228;-71
2022/05/26 15:07:48;;;;;;;3.85;1.50;;;;;;;;;;5008778;28;93086;-71
2022/05/26 15:10:16;;;;;;;9.90;1.55;;;;;;;;;;5008527;28;94354;-71
2022/05/26 15:12:42;;;;;;;3.83;1.48;;;;;;;;;;4999790;28;91767;-71
2022/05/26 15:15:10;;;;;;;3.25;1.02;;;;;;;;;;4992718;28;93613;-71
2022/05/26 15:17:36;;;;;;;6.65;1.42;;;;;;;;;;4991832;28;94166;-71
2022/05/26 15:20:05;;;;;;;2.83;1.38;;;;;;;;;;4996034;28;95044;-71
2022/05/26 15:22:32;;;;;;;2.72;1.55;;;;;;;;;;5011674;28;95362;-71
2022/05/26 15:25:00;;;;;;;9.45;1.83;;;;;;;;;;4996972;28;95197;-71
2022/05/26 15:27:27;;;;;;;5.43;2.00;;;;;;;;;;5004511;28;93658;-71
2022/05/26 15:29:56;;;;;;;6.03;1.70;;;;;;;;;;4997690;28;94176;-71
2022/05/26 15:32:34;;;;;;;6.95;1.80;;;;;;;;;;5014080;28;92793;-72
2022/05/26 15:35:01;;;;;;;4.93;1.38;;;;;;;;;;5013230;28;94246;-72
2022/05/26 15:37:28;;;;;;;4.38;1.65;;;;;;;;;;5014421;28;93315;-72